createdAt,value
2024-05-09T00:00:35.799Z,11.13
2024-05-09T00:03:10.246Z,11.12
2024-05-09T00:05:40.235Z,11.13
2024-05-09T00:08:08.522Z,11.14
2024-05-09T00:10:37.952Z,11.15
2024-05-09T00:13:07.043Z,11.16
2024-05-09T00:15:34.818Z,11.14
2024-05-09T00:18:02.642Z,11.16
2024-05-09T00:20:37.426Z,11.15
2024-05-09T00:23:07.977Z,11.12
2024-05-09T00:25:35.445Z,11.12
2024-05-09T00:28:02.464Z,11.09
2024-05-09T00:30:34.356Z,11.13
2024-05-09T00:33:07.879Z,11.13
2024-05-09T00:35:35.987Z,11.10
2024-05-09T00:38:02.883Z,11.13
2024-05-09T00:40:43.412Z,11.13
2024-05-09T00:43:12.084Z,11.13
2024-05-09T00:45:39.522Z,11.13
2024-05-09T00:48:08.796Z,11.11
2024-05-09T00:50:39.949Z,11.11
2024-05-09T00:53:08.392Z,11.10
2024-05-09T00:55:39.244Z,11.11
2024-05-09T00:58:07.660Z,11.10
2024-05-09T01:00:39.188Z,11.08
2024-05-09T01:03:09.710Z,11.09
2024-05-09T01:05:39.382Z,11.10
2024-05-09T01:08:07.143Z,11.07
2024-05-09T01:10:35.485Z,11.07
2024-05-09T01:13:04.292Z,11.07
2024-05-09T01:15:31.114Z,11.07
2024-05-09T01:17:58.911Z,11.07
2024-05-09T01:20:36.846Z,11.06
2024-05-09T01:23:09.615Z,11.04
2024-05-09T01:25:36.943Z,11.03
2024-05-09T01:28:04.035Z,10.99
2024-05-09T01:30:35.351Z,11.04
2024-05-09T01:33:06.133Z,11.04
2024-05-09T01:35:34.441Z,11.00
2024-05-09T01:38:01.271Z,11.02
2024-05-09T01:40:36.438Z,11.03
2024-05-09T01:43:06.266Z,11.08
2024-05-09T01:45:33.150Z,11.06
2024-05-09T01:48:00.128Z,11.05
2024-05-09T01:50:36.906Z,11.02
2024-05-09T01:53:07.368Z,11.02
2024-05-09T01:55:34.152Z,11.03
2024-05-09T01:58:00.897Z,11.04
2024-05-09T02:00:37.821Z,11.03
2024-05-09T02:03:15.210Z,11.04
2024-05-09T02:05:45.596Z,11.06
2024-05-09T02:08:17.167Z,11.06
2024-05-09T02:10:44.768Z,11.07
2024-05-09T02:13:12.175Z,11.07
2024-05-09T02:15:38.837Z,11.08
2024-05-09T02:18:05.972Z,11.09
2024-05-09T02:20:36.443Z,11.07
2024-05-09T02:23:06.144Z,11.01
2024-05-09T02:25:33.448Z,11.00
2024-05-09T02:28:00.151Z,11.00
2024-05-09T02:30:37.772Z,10.96
2024-05-09T02:33:08.414Z,10.96
2024-05-09T02:35:36.029Z,10.97
2024-05-09T02:38:03.039Z,10.95
2024-05-09T02:40:36.636Z,10.97
2024-05-09T02:43:06.527Z,10.98
2024-05-09T02:45:33.541Z,10.98
2024-05-09T02:48:01.372Z,10.98
2024-05-09T02:50:34.667Z,10.96
2024-05-09T02:53:06.208Z,10.94
2024-05-09T02:55:33.259Z,10.93
2024-05-09T02:57:59.935Z,10.93
2024-05-09T03:00:35.066Z,10.87
2024-05-09T03:03:08.339Z,10.86
2024-05-09T03:05:36.436Z,10.87
2024-05-09T03:08:03.427Z,10.84
2024-05-09T03:10:35.631Z,10.84
2024-05-09T03:13:13.070Z,10.82
2024-05-09T03:15:41.122Z,10.80
2024-05-09T03:18:07.997Z,10.79
2024-05-09T03:20:36.195Z,10.76
2024-05-09T03:23:05.262Z,10.75
2024-05-09T03:25:32.432Z,10.74
2024-05-09T03:27:59.533Z,10.76
2024-05-09T03:30:38.185Z,10.73
2024-05-09T03:33:17.938Z,10.74
2024-05-09T03:35:46.709Z,10.72
2024-05-09T03:38:13.888Z,10.71
2024-05-09T03:40:48.226Z,10.71
2024-05-09T03:43:15.866Z,10.72
2024-05-09T03:45:43.401Z,10.71
2024-05-09T03:48:10.405Z,10.72
2024-05-09T03:50:37.784Z,10.74
2024-05-09T03:53:05.371Z,10.73
2024-05-09T03:55:32.187Z,10.76
2024-05-09T03:57:59.182Z,10.77
2024-05-09T04:00:34.494Z,10.77
2024-05-09T04:03:07.591Z,10.75
2024-05-09T04:05:38.118Z,10.79
2024-05-09T04:08:05.593Z,10.87
2024-05-09T04:10:34.237Z,10.90
2024-05-09T04:13:02.623Z,10.98
2024-05-09T04:15:29.630Z,11.05
2024-05-09T04:17:56.659Z,11.12
2024-05-09T04:20:35.540Z,11.19
2024-05-09T04:23:06.979Z,11.23
2024-05-09T04:25:34.375Z,11.24
2024-05-09T04:28:01.115Z,11.30
2024-05-09T04:30:36.459Z,11.35
2024-05-09T04:33:08.101Z,11.39
2024-05-09T04:35:36.750Z,11.50
2024-05-09T04:38:03.647Z,11.55
2024-05-09T04:40:34.327Z,11.62
2024-05-09T04:43:04.423Z,11.68
2024-05-09T04:45:31.321Z,11.75
2024-05-09T04:47:58.495Z,11.82
2024-05-09T04:50:33.759Z,11.85
2024-05-09T04:53:04.822Z,11.93
2024-05-09T04:55:33.177Z,11.92
2024-05-09T04:58:00.027Z,11.91
2024-05-09T05:00:34.693Z,11.93
2024-05-09T05:03:10.391Z,12.02
2024-05-09T05:05:42.190Z,12.05
2024-05-09T05:08:17.021Z,12.01
2024-05-09T05:10:45.124Z,11.92
2024-05-09T05:13:22.678Z,11.99
2024-05-09T05:15:57.269Z,11.99
2024-05-09T05:18:26.710Z,11.94
2024-05-09T05:20:56.158Z,12.16
2024-05-09T05:23:23.940Z,12.38
2024-05-09T05:25:53.227Z,12.53
2024-05-09T05:28:20.797Z,12.42
2024-05-09T05:30:47.615Z,12.24
2024-05-09T05:33:16.181Z,12.25
2024-05-09T05:35:43.110Z,12.31
2024-05-09T05:38:10.872Z,12.32
2024-05-09T05:40:38.843Z,12.31
2024-05-09T05:43:10.796Z,12.37
2024-05-09T05:45:38.046Z,12.39
2024-05-09T05:48:06.466Z,12.49
2024-05-09T05:50:36.739Z,12.66
2024-05-09T05:53:07.502Z,13.02
2024-05-09T05:55:35.048Z,13.20
2024-05-09T05:58:02.395Z,13.29
2024-05-09T06:00:35.338Z,13.38
2024-05-09T06:03:05.832Z,13.71
2024-05-09T06:05:33.009Z,13.99
2024-05-09T06:08:00.015Z,14.18
2024-05-09T06:10:36.933Z,14.17
2024-05-09T06:13:06.544Z,14.22
2024-05-09T06:15:33.281Z,14.36
2024-05-09T06:18:00.256Z,14.49
2024-05-09T06:20:34.801Z,14.68
2024-05-09T06:23:04.395Z,15.21
2024-05-09T06:25:31.438Z,15.53
2024-05-09T06:27:59.147Z,15.41
2024-05-09T06:30:34.470Z,15.59
2024-05-09T06:33:06.058Z,15.55
2024-05-09T06:35:34.141Z,15.38
2024-05-09T06:38:01.364Z,15.47
2024-05-09T06:40:36.489Z,15.70
2024-05-09T06:43:10.317Z,15.80
2024-05-09T06:45:37.107Z,15.64
2024-05-09T06:48:04.411Z,15.95
2024-05-09T06:50:35.867Z,16.29
2024-05-09T06:53:05.111Z,16.16
2024-05-09T06:55:31.863Z,15.95
2024-05-09T06:57:58.537Z,16.14
2024-05-09T07:00:30.969Z,16.10
2024-05-09T07:03:12.956Z,15.72
2024-05-09T07:05:41.845Z,15.68
2024-05-09T07:08:08.756Z,15.95
2024-05-09T07:10:36.537Z,16.52
2024-05-09T07:13:15.287Z,16.08
2024-05-09T07:15:42.323Z,15.92
2024-05-09T07:18:17.835Z,16.79
2024-05-09T07:20:46.601Z,17.34
2024-05-09T07:23:13.857Z,17.19
2024-05-09T07:25:41.470Z,18.19
2024-05-09T07:28:15.020Z,17.98
2024-05-09T07:30:42.574Z,17.37
2024-05-09T07:33:09.937Z,17.37
2024-05-09T07:35:36.820Z,18.38
2024-05-09T07:38:03.537Z,18.80
2024-05-09T07:40:35.865Z,17.93
2024-05-09T07:43:04.841Z,18.73
2024-05-09T07:45:48.049Z,21.04
2024-05-09T07:53:38.895Z,22.51
2024-05-09T07:56:09.418Z,23.89
2024-05-09T07:58:36.658Z,25.23
2024-05-09T08:01:03.715Z,25.12
2024-05-09T08:03:31.184Z,25.19
2024-05-09T08:05:57.998Z,25.26
2024-05-09T08:08:24.729Z,24.51
2024-05-09T08:10:51.478Z,25.61
2024-05-09T08:13:18.432Z,25.19
2024-05-09T08:15:45.388Z,22.65
2024-05-09T08:18:12.392Z,20.75
2024-05-09T08:20:40.450Z,19.32
2024-05-09T08:23:07.588Z,18.54
2024-05-09T08:25:34.233Z,17.76
2024-05-09T08:28:01.012Z,17.50
2024-05-09T08:30:33.707Z,17.39
2024-05-09T08:33:04.976Z,17.45
2024-05-09T08:35:32.540Z,17.43
2024-05-09T08:37:59.765Z,17.49
2024-05-09T08:40:33.887Z,17.83
2024-05-09T08:43:07.336Z,17.95
2024-05-09T08:45:35.842Z,18.07
2024-05-09T08:48:05.924Z,18.05
2024-05-09T08:50:38.786Z,18.20
2024-05-09T08:53:07.878Z,18.19
2024-05-09T08:55:37.402Z,18.35
2024-05-09T08:58:07.656Z,18.41
2024-05-09T09:00:37.434Z,18.85
2024-05-09T09:03:09.246Z,19.62
2024-05-09T09:05:39.009Z,21.28
2024-05-09T09:08:08.020Z,23.67
2024-05-09T09:10:35.224Z,24.57
2024-05-09T09:13:04.485Z,24.46
2024-05-09T09:15:31.713Z,27.82
2024-05-09T09:17:59.481Z,30.47
2024-05-09T09:20:34.068Z,30.37
2024-05-09T09:23:03.383Z,29.66
2024-05-09T09:25:30.050Z,29.46
2024-05-09T09:27:57.823Z,29.33
2024-05-09T09:30:34.687Z,27.07
2024-05-09T09:33:05.370Z,23.95
2024-05-09T09:35:32.757Z,22.47
2024-05-09T09:38:02.176Z,23.18
2024-05-09T09:40:35.888Z,21.79
2024-05-09T09:43:08.891Z,21.38
2024-05-09T09:45:36.524Z,21.10
2024-05-09T09:48:04.969Z,20.07
2024-05-09T09:50:35.260Z,19.92
2024-05-09T09:53:04.179Z,20.20
2024-05-09T09:55:32.672Z,19.86
2024-05-09T09:57:59.873Z,19.91
2024-05-09T10:00:32.749Z,19.87
2024-05-09T10:03:01.168Z,19.89
2024-05-09T10:05:28.839Z,19.59
2024-05-09T10:07:57.453Z,19.27
2024-05-09T10:10:32.085Z,18.97
2024-05-09T10:13:04.657Z,18.96
2024-05-09T10:15:53.043Z,18.77
2024-05-09T10:18:27.046Z,18.67
2024-05-09T10:20:56.138Z,18.52
2024-05-09T10:23:27.042Z,18.51
2024-05-09T10:26:05.503Z,18.43
2024-05-09T10:28:34.984Z,18.51
2024-05-09T10:31:08.723Z,18.38
2024-05-09T10:33:54.936Z,18.35
2024-05-09T10:36:23.359Z,18.35
2024-05-09T10:38:50.940Z,18.36
2024-05-09T10:41:18.310Z,18.38
2024-05-09T10:43:45.031Z,18.34
2024-05-09T10:46:12.389Z,18.37
2024-05-09T10:48:41.657Z,18.46
2024-05-09T10:51:08.996Z,18.75
2024-05-09T10:53:46.561Z,19.02
2024-05-09T10:56:14.887Z,19.52
2024-05-09T10:58:41.796Z,19.79
2024-05-09T11:01:09.829Z,20.04
2024-05-09T11:03:37.928Z,20.51
2024-05-09T11:06:06.396Z,20.55
2024-05-09T11:08:34.140Z,21.54
2024-05-09T11:11:02.970Z,24.69
2024-05-09T11:13:30.731Z,27.33
2024-05-09T11:15:57.701Z,29.44
2024-05-09T11:18:27.137Z,30.70
2024-05-09T11:20:56.037Z,32.20
2024-05-09T11:23:26.207Z,32.55
2024-05-09T11:25:54.765Z,29.44
2024-05-09T11:28:22.801Z,27.55
2024-05-09T11:30:50.603Z,25.95
2024-05-09T11:33:19.566Z,24.96
2024-05-09T11:35:47.155Z,24.69
2024-05-09T11:38:14.073Z,23.79
2024-05-09T11:40:40.988Z,23.01
2024-05-09T11:43:07.718Z,22.86
2024-05-09T11:45:34.512Z,22.97
2024-05-09T11:48:01.557Z,24.25
2024-05-09T11:50:33.023Z,25.36
2024-05-09T11:53:02.345Z,25.63
2024-05-09T11:55:29.339Z,26.60
2024-05-09T11:57:56.940Z,26.47
2024-05-09T12:00:33.005Z,25.52
2024-05-09T12:03:05.204Z,24.22
2024-05-09T12:05:32.558Z,23.29
2024-05-09T12:07:59.595Z,22.41
2024-05-09T12:10:32.507Z,21.58
2024-05-09T12:13:02.227Z,20.81
2024-05-09T12:15:29.104Z,19.38
2024-05-09T12:17:58.354Z,19.36
2024-05-09T12:20:35.139Z,19.61
2024-05-09T12:23:04.975Z,19.31
2024-05-09T12:25:31.566Z,19.61
2024-05-09T12:27:58.419Z,19.68
2024-05-09T12:30:33.217Z,19.89
2024-05-09T12:33:05.025Z,20.26
2024-05-09T12:35:31.866Z,20.40
2024-05-09T12:37:58.565Z,20.72
2024-05-09T12:40:34.278Z,20.79
2024-05-09T12:43:04.492Z,21.36
2024-05-09T12:45:31.547Z,23.38
2024-05-09T12:47:58.483Z,24.07
2024-05-09T12:50:31.933Z,24.23
2024-05-09T12:53:01.690Z,24.19
2024-05-09T12:55:33.468Z,24.15
2024-05-09T12:58:07.018Z,23.83
2024-05-09T13:00:34.586Z,24.03
2024-05-09T13:03:01.681Z,23.59
2024-05-09T13:05:29.068Z,23.42
2024-05-09T13:07:56.932Z,23.47
2024-05-09T13:10:31.173Z,22.98
2024-05-09T13:13:00.800Z,22.89
2024-05-09T13:15:28.370Z,22.62
2024-05-09T13:17:58.108Z,22.10
2024-05-09T13:20:32.673Z,21.52
2024-05-09T13:23:02.757Z,21.18
2024-05-09T13:25:29.447Z,20.81
2024-05-09T13:27:57.159Z,20.77
2024-05-09T13:30:29.938Z,20.72
2024-05-09T13:33:06.107Z,20.70
2024-05-09T13:35:35.415Z,20.67
2024-05-09T13:38:03.082Z,20.52
2024-05-09T13:40:34.239Z,20.62
2024-05-09T13:43:06.056Z,20.64
2024-05-09T13:45:33.625Z,20.82
2024-05-09T13:48:02.009Z,20.93
2024-05-09T13:50:34.470Z,20.71
2024-05-09T13:53:03.620Z,20.59
2024-05-09T13:55:30.363Z,20.40
2024-05-09T13:57:56.971Z,20.36
2024-05-09T14:00:37.759Z,20.27
2024-05-09T14:03:10.301Z,20.17
2024-05-09T14:05:37.200Z,20.27
2024-05-09T14:08:04.209Z,19.92
2024-05-09T14:10:32.014Z,19.81
2024-05-09T14:12:59.769Z,19.92
2024-05-09T14:15:26.575Z,19.76
2024-05-09T14:17:53.392Z,19.71
2024-05-09T14:20:29.910Z,19.74
2024-05-09T14:22:58.636Z,19.57
2024-05-09T14:25:31.933Z,19.51
2024-05-09T14:27:58.900Z,19.38
2024-05-09T14:30:34.252Z,19.10
2024-05-09T14:33:06.222Z,19.02
2024-05-09T14:35:33.841Z,19.05
2024-05-09T14:38:00.424Z,19.02
2024-05-09T14:40:37.166Z,19.02
2024-05-09T14:43:08.631Z,19.23
2024-05-09T14:45:35.620Z,19.52
2024-05-09T14:48:02.820Z,19.57
2024-05-09T14:50:35.825Z,19.69
2024-05-09T14:53:06.398Z,19.99
2024-05-09T14:55:35.709Z,19.91
2024-05-09T14:58:02.842Z,20.11
2024-05-09T15:00:35.346Z,20.16
2024-05-09T15:03:03.389Z,19.81
2024-05-09T15:05:30.279Z,19.46
2024-05-09T15:07:57.493Z,19.11
2024-05-09T15:10:33.342Z,18.94
2024-05-09T15:13:02.400Z,18.83
2024-05-09T15:15:29.053Z,18.77
2024-05-09T15:17:55.970Z,18.76
2024-05-09T15:20:31.024Z,18.82
2024-05-09T15:23:01.897Z,18.81
2024-05-09T15:25:28.645Z,18.81
2024-05-09T15:27:55.359Z,18.67
2024-05-09T15:30:29.980Z,18.55
2024-05-09T15:32:59.139Z,18.54
2024-05-09T15:35:25.769Z,18.43
2024-05-09T15:37:52.310Z,18.45
2024-05-09T15:40:26.610Z,18.47
2024-05-09T15:43:02.311Z,18.33
2024-05-09T15:45:29.372Z,18.38
2024-05-09T15:47:56.774Z,18.39
2024-05-09T15:50:32.808Z,18.48
2024-05-09T15:53:04.956Z,18.49
2024-05-09T15:55:33.980Z,18.56
2024-05-09T15:58:01.822Z,18.46
2024-05-09T16:00:36.626Z,18.31
2024-05-09T16:03:07.218Z,18.14
2024-05-09T16:05:34.210Z,18.04
2024-05-09T16:08:01.046Z,17.94
2024-05-09T16:10:32.575Z,17.79
2024-05-09T16:13:01.478Z,17.76
2024-05-09T16:15:28.592Z,17.73
2024-05-09T16:17:55.508Z,17.64
2024-05-09T16:20:33.974Z,17.59
2024-05-09T16:23:06.472Z,17.51
2024-05-09T16:25:33.313Z,17.37
2024-05-09T16:28:00.326Z,17.26
2024-05-09T16:30:34.145Z,17.19
2024-05-09T16:33:04.442Z,17.15
2024-05-09T16:35:32.007Z,17.11
2024-05-09T16:37:58.806Z,17.09
2024-05-09T16:40:34.399Z,17.06
2024-05-09T16:43:05.847Z,17.04
2024-05-09T16:45:33.294Z,17.00
2024-05-09T16:48:00.918Z,16.99
2024-05-09T16:50:32.603Z,16.95
2024-05-09T16:53:01.985Z,16.91
2024-05-09T16:55:29.129Z,16.89
2024-05-09T16:57:57.259Z,16.88
2024-05-09T17:00:35.209Z,16.85
2024-05-09T17:03:07.778Z,16.78
2024-05-09T17:05:35.553Z,16.73
2024-05-09T17:08:03.063Z,16.69
2024-05-09T17:10:33.456Z,16.64
2024-05-09T17:13:02.542Z,16.62
2024-05-09T17:15:29.914Z,16.59
2024-05-09T17:17:56.830Z,16.56
2024-05-09T17:20:31.332Z,16.51
2024-05-09T17:23:02.074Z,16.46
2024-05-09T17:25:29.091Z,16.42
2024-05-09T17:27:56.147Z,16.40
2024-05-09T17:30:28.974Z,16.37
2024-05-09T17:33:02.189Z,16.32
2024-05-09T17:35:29.435Z,16.28
2024-05-09T17:37:56.610Z,16.24
2024-05-09T17:43:10.910Z,16.12
2024-05-09T17:45:40.202Z,16.06
2024-05-09T17:48:09.407Z,16.02
2024-05-09T17:50:37.722Z,15.97
2024-05-09T17:53:06.169Z,15.92
2024-05-09T17:55:33.312Z,15.82
2024-05-09T17:58:00.804Z,15.75
2024-05-09T18:00:36.837Z,15.64
2024-05-09T18:03:07.569Z,15.57
2024-05-09T18:05:38.042Z,15.48
2024-05-09T18:08:08.717Z,15.39
2024-05-09T18:10:38.653Z,15.29
2024-05-09T18:13:08.342Z,15.21
2024-05-09T18:15:35.599Z,15.10
2024-05-09T18:18:03.292Z,15.01
2024-05-09T18:20:39.340Z,14.76
2024-05-09T18:23:10.559Z,14.52
2024-05-09T18:25:37.367Z,14.32
2024-05-09T18:28:04.678Z,14.13
2024-05-09T18:30:35.177Z,13.95
2024-05-09T18:33:05.561Z,13.75
2024-05-09T18:35:33.588Z,13.62
2024-05-09T18:38:00.553Z,13.47
2024-05-09T18:40:34.001Z,13.34
2024-05-09T18:43:04.642Z,13.26
2024-05-09T18:45:32.303Z,13.17
2024-05-09T18:47:59.171Z,13.07
2024-05-09T18:50:33.718Z,12.90
2024-05-09T18:53:06.190Z,12.77
2024-05-09T18:55:33.181Z,12.69
2024-05-09T18:58:00.212Z,12.60
2024-05-09T19:00:34.136Z,12.45
2024-05-09T19:03:06.183Z,12.30
2024-05-09T19:05:35.541Z,12.22
2024-05-09T19:08:03.228Z,12.22
2024-05-09T19:10:34.315Z,12.08
2024-05-09T19:13:06.481Z,12.01
2024-05-09T19:15:37.531Z,11.89
2024-05-09T19:18:04.669Z,11.80
2024-05-09T19:20:34.568Z,11.70
2024-05-09T19:23:02.858Z,11.64
2024-05-09T19:25:29.814Z,11.57
2024-05-09T19:27:56.630Z,11.46
2024-05-09T19:30:30.507Z,11.35
2024-05-09T19:33:06.026Z,11.28
2024-05-09T19:35:33.070Z,11.17
2024-05-09T19:38:00.033Z,11.04
2024-05-09T19:40:31.446Z,10.95
2024-05-09T19:43:01.493Z,10.91
2024-05-09T19:45:28.855Z,10.89
2024-05-09T19:47:56.093Z,10.89
2024-05-09T19:50:31.460Z,10.80
2024-05-09T19:53:04.652Z,10.70
2024-05-09T19:55:31.295Z,10.59
2024-05-09T19:57:58.927Z,10.50
2024-05-09T20:00:32.737Z,10.40
2024-05-09T20:03:02.848Z,10.32
2024-05-09T20:05:33.296Z,10.24
2024-05-09T20:08:00.214Z,10.28
2024-05-09T20:10:32.009Z,10.21
2024-05-09T20:13:01.001Z,10.09
2024-05-09T20:15:27.785Z,10.06
2024-05-09T20:17:55.143Z,9.98
2024-05-09T20:20:32.993Z,9.95
2024-05-09T20:23:05.895Z,9.85
2024-05-09T20:25:32.665Z,9.77
2024-05-09T20:27:59.460Z,9.74
2024-05-09T20:30:31.836Z,9.74
2024-05-09T20:33:02.260Z,9.64
2024-05-09T20:35:31.952Z,9.64
2024-05-09T20:37:59.265Z,9.60
2024-05-09T20:40:31.905Z,9.46
2024-05-09T20:43:02.311Z,9.42
2024-05-09T20:45:29.072Z,9.37
2024-05-09T20:47:56.263Z,9.29
2024-05-09T20:50:32.040Z,9.22
2024-05-09T20:53:05.137Z,9.18
2024-05-09T20:55:31.896Z,9.15
2024-05-09T20:57:58.783Z,9.13
2024-05-09T21:00:34.328Z,9.11
2024-05-09T21:03:07.116Z,9.06
2024-05-09T21:05:34.786Z,9.15
2024-05-09T21:08:01.998Z,9.02
2024-05-09T21:10:32.774Z,8.98
2024-05-09T21:13:01.894Z,9.01
2024-05-09T21:15:29.392Z,9.05
2024-05-09T21:17:56.148Z,8.92
2024-05-09T21:20:28.850Z,8.86
2024-05-09T21:22:58.546Z,8.80
2024-05-09T21:25:25.587Z,8.76
2024-05-09T21:27:52.707Z,8.70
2024-05-09T21:30:31.448Z,8.66
2024-05-09T21:33:07.654Z,8.63
2024-05-09T21:35:34.595Z,8.56
2024-05-09T21:38:01.144Z,8.52
2024-05-09T21:40:34.113Z,8.43
2024-05-09T21:43:03.120Z,8.37
2024-05-09T21:45:29.956Z,8.38
2024-05-09T21:47:56.772Z,8.46
2024-05-09T21:50:31.612Z,8.47
2024-05-09T21:53:05.449Z,8.37
2024-05-09T21:55:32.075Z,8.35
2024-05-09T21:57:58.752Z,8.24
2024-05-09T22:00:32.964Z,8.23
2024-05-09T22:03:04.057Z,8.10
2024-05-09T22:05:31.080Z,8.14
2024-05-09T22:07:57.985Z,8.18
2024-05-09T22:10:30.700Z,8.13
2024-05-09T22:13:01.282Z,8.06
2024-05-09T22:15:28.106Z,8.00
2024-05-09T22:17:56.344Z,7.89
2024-05-09T22:20:32.847Z,7.80
2024-05-09T22:23:04.037Z,7.76
2024-05-09T22:25:32.071Z,7.71
2024-05-09T22:27:59.917Z,7.64
2024-05-09T22:30:34.958Z,7.66
2024-05-09T22:33:06.332Z,7.69
2024-05-09T22:35:33.308Z,7.61
2024-05-09T22:38:00.300Z,7.61
2024-05-09T22:40:38.663Z,7.53
2024-05-09T22:43:13.490Z,7.45
2024-05-09T22:45:40.416Z,7.42
2024-05-09T22:48:08.571Z,7.38
2024-05-09T22:50:35.555Z,7.37
2024-05-09T22:53:02.360Z,7.41
2024-05-09T22:55:29.081Z,7.40
2024-05-09T22:57:56.191Z,7.35
2024-05-09T23:00:30.753Z,7.31
2024-05-09T23:02:59.912Z,7.25
2024-05-09T23:05:26.976Z,7.20
2024-05-09T23:07:53.777Z,7.20
2024-05-09T23:10:27.773Z,7.22
2024-05-09T23:12:59.338Z,7.23
2024-05-09T23:15:26.066Z,7.15
2024-05-09T23:17:52.866Z,7.20
2024-05-09T23:20:29.871Z,7.12
2024-05-09T23:23:03.540Z,7.04
2024-05-09T23:25:30.334Z,7.02
2024-05-09T23:27:57.227Z,6.96
2024-05-09T23:30:33.539Z,6.98
2024-05-09T23:33:05.569Z,6.95
2024-05-09T23:35:33.426Z,6.89
2024-05-09T23:38:00.100Z,6.86
2024-05-09T23:40:35.091Z,6.82
2024-05-09T23:43:05.769Z,6.79
2024-05-09T23:45:32.436Z,6.77
2024-05-09T23:47:59.324Z,6.74
2024-05-09T23:50:33.682Z,6.69
2024-05-09T23:53:03.440Z,6.70
2024-05-09T23:55:31.434Z,6.67
2024-05-09T23:57:58.424Z,6.67
